createdAt,value
2023-05-14T00:02:04.138Z,34.60
2023-05-14T00:04:34.320Z,34.13
2023-05-14T00:07:02.406Z,33.90
2023-05-14T00:09:32.866Z,32.77
2023-05-14T00:11:59.867Z,32.33
2023-05-14T00:14:27.915Z,31.57
2023-05-14T00:16:55.193Z,30.00
2023-05-14T00:19:25.587Z,32.40
2023-05-14T00:21:55.646Z,25.57
2023-05-14T00:24:23.080Z,30.63
2023-05-14T00:26:51.089Z,28.03
2023-05-14T00:29:19.161Z,38.97
2023-05-14T00:31:49.467Z,28.43
2023-05-14T00:34:18.791Z,25.73
2023-05-14T00:36:48.875Z,33.47
2023-05-14T00:39:15.848Z,22.47
2023-05-14T00:41:42.929Z,32.93
2023-05-14T00:44:09.978Z,29.53
2023-05-14T00:46:40.287Z,34.27
2023-05-14T00:49:07.350Z,33.23
2023-05-14T00:51:34.612Z,36.73
2023-05-14T00:54:04.845Z,34.53
2023-05-14T00:56:35.263Z,27.57
2023-05-14T00:59:03.380Z,32.50
2023-05-14T01:01:32.526Z,35.33
2023-05-14T01:04:03.037Z,31.63
2023-05-14T01:06:58.343Z,28.73
2023-05-14T01:09:44.867Z,25.87
2023-05-14T01:12:27.448Z,25.73
2023-05-14T01:15:20.081Z,31.10
2023-05-14T01:18:04.868Z,32.07
2023-05-14T01:20:35.431Z,33.57
2023-05-14T01:23:04.441Z,30.73
2023-05-14T01:25:33.876Z,30.03
2023-05-14T01:28:20.776Z,26.00
2023-05-14T01:31:08.133Z,28.70
2023-05-14T01:33:43.493Z,37.23
2023-05-14T01:36:16.631Z,25.63
2023-05-14T01:38:49.908Z,41.23
2023-05-14T01:41:21.993Z,28.03
2023-05-14T01:43:49.415Z,25.80
2023-05-14T01:46:20.780Z,24.60
2023-05-14T01:48:51.063Z,27.73
2023-05-14T01:51:18.301Z,28.30
2023-05-14T01:53:45.405Z,31.97
2023-05-14T01:56:12.343Z,34.63
2023-05-14T01:58:42.374Z,28.87
2023-05-14T02:01:09.398Z,30.83
2023-05-14T02:03:42.658Z,34.33
2023-05-14T02:06:09.685Z,35.43
2023-05-14T02:08:37.752Z,30.40
2023-05-14T02:11:07.825Z,31.43
2023-05-14T02:13:34.780Z,33.97
2023-05-14T02:16:05.297Z,36.03
2023-05-14T02:18:34.527Z,25.90
2023-05-14T02:21:02.768Z,31.93
2023-05-14T02:23:41.006Z,28.27
2023-05-14T02:26:10.916Z,27.73
2023-05-14T02:28:41.105Z,25.60
2023-05-14T02:31:08.069Z,30.47
2023-05-14T02:33:38.323Z,27.50
2023-05-14T02:36:06.536Z,26.80
2023-05-14T02:38:36.600Z,31.13
2023-05-14T02:41:06.924Z,25.47
2023-05-14T02:43:37.058Z,24.00
2023-05-14T02:46:04.298Z,21.73
2023-05-14T02:48:34.390Z,24.43
2023-05-14T02:51:03.385Z,25.17
2023-05-14T02:53:32.472Z,28.10
2023-05-14T02:56:02.724Z,25.23
2023-05-14T02:58:29.705Z,22.27
2023-05-14T03:00:56.882Z,19.80
2023-05-14T03:03:24.453Z,27.20
2023-05-14T03:05:52.091Z,28.43
2023-05-14T03:08:22.200Z,31.80
2023-05-14T03:10:51.364Z,30.10
2023-05-14T03:13:20.097Z,26.90
2023-05-14T03:15:54.949Z,27.30
2023-05-14T03:18:25.268Z,26.83
2023-05-14T03:20:55.331Z,31.20
2023-05-14T03:23:25.508Z,29.37
2023-05-14T03:25:58.564Z,30.33
2023-05-14T03:28:26.158Z,29.60
2023-05-14T03:30:53.277Z,24.50
2023-05-14T03:33:21.295Z,30.30
2023-05-14T03:35:48.374Z,25.03
2023-05-14T03:38:15.382Z,25.80
2023-05-14T03:40:45.607Z,26.07
2023-05-14T03:43:16.426Z,26.53
2023-05-14T03:45:47.093Z,22.90
2023-05-14T03:48:14.263Z,27.17
2023-05-14T03:50:42.314Z,28.83
2023-05-14T03:53:15.362Z,24.93
2023-05-14T03:55:45.462Z,22.73
2023-05-14T03:58:15.833Z,24.63
2023-05-14T04:00:46.087Z,23.57
2023-05-14T04:03:13.114Z,22.63
2023-05-14T04:05:40.124Z,31.50
2023-05-14T04:08:08.193Z,31.40
2023-05-14T04:10:36.293Z,29.60
2023-05-14T04:13:05.329Z,29.43
2023-05-14T04:15:32.270Z,24.23
2023-05-14T04:18:01.506Z,22.53
2023-05-14T04:20:31.682Z,27.90
2023-05-14T04:23:01.956Z,28.17
2023-05-14T04:25:30.591Z,23.97
2023-05-14T04:27:58.776Z,21.37
2023-05-14T04:30:28.956Z,23.03
2023-05-14T04:32:58.261Z,18.53
2023-05-14T04:35:31.431Z,24.53
2023-05-14T04:37:59.415Z,22.63
2023-05-14T04:40:26.654Z,21.77
2023-05-14T04:42:57.112Z,24.23
2023-05-14T04:45:25.038Z,19.93
2023-05-14T04:47:53.304Z,23.10
2023-05-14T04:50:21.697Z,29.83
2023-05-14T04:52:52.074Z,28.40
2023-05-14T04:55:22.583Z,25.73
2023-05-14T04:57:49.623Z,20.27
2023-05-14T05:00:22.199Z,19.53
2023-05-14T05:02:52.621Z,17.93
2023-05-14T05:05:19.810Z,23.73
2023-05-14T05:07:46.909Z,23.27
2023-05-14T05:10:17.013Z,19.57
2023-05-14T05:12:46.220Z,25.93
2023-05-14T05:15:14.233Z,21.57
2023-05-14T05:17:42.299Z,20.40
2023-05-14T05:20:11.943Z,23.07
2023-05-14T05:22:40.069Z,26.30
2023-05-14T05:25:09.245Z,27.07
2023-05-14T05:27:39.372Z,24.57
2023-05-14T05:30:07.496Z,27.80
2023-05-14T05:32:36.913Z,21.63
2023-05-14T05:35:07.209Z,22.13
2023-05-14T05:37:37.362Z,20.17
2023-05-14T05:40:07.142Z,26.33
2023-05-14T05:42:36.290Z,25.53
2023-05-14T05:45:04.610Z,26.77
2023-05-14T05:47:34.838Z,25.87
2023-05-14T05:50:05.511Z,21.83
2023-05-14T05:52:34.617Z,21.10
2023-05-14T05:55:01.864Z,19.07
2023-05-14T05:57:29.898Z,27.00
2023-05-14T05:59:56.993Z,19.47
2023-05-14T06:02:30.212Z,20.40
2023-05-14T06:04:57.318Z,26.43
2023-05-14T06:07:26.375Z,21.00
2023-05-14T06:09:56.440Z,18.40
2023-05-14T06:12:26.727Z,24.73
2023-05-14T06:14:58.008Z,25.13
2023-05-14T06:17:25.834Z,21.83
2023-05-14T06:19:55.956Z,22.00
2023-05-14T06:22:22.946Z,22.93
2023-05-14T06:24:53.069Z,26.17
2023-05-14T06:27:22.443Z,20.07
2023-05-14T06:29:52.468Z,19.17
2023-05-14T06:32:19.552Z,17.07
2023-05-14T06:34:46.710Z,20.30
2023-05-14T06:37:13.875Z,23.53
2023-05-14T06:39:44.350Z,20.47
2023-05-14T06:42:11.327Z,24.33
2023-05-14T06:44:41.430Z,15.53
2023-05-14T06:47:11.646Z,19.77
2023-05-14T06:49:41.006Z,18.47
2023-05-14T06:52:08.495Z,20.70
2023-05-14T06:54:36.604Z,20.17
2023-05-14T06:57:12.835Z,25.00
2023-05-14T06:59:45.825Z,21.80
2023-05-14T07:02:14.898Z,17.23
2023-05-14T07:04:42.001Z,21.37
2023-05-14T07:07:13.655Z,22.00
2023-05-14T07:09:43.806Z,22.77
2023-05-14T07:12:13.834Z,24.80
2023-05-14T07:14:43.963Z,24.20
2023-05-14T07:17:11.381Z,21.07
2023-05-14T07:19:41.574Z,20.80
2023-05-14T07:22:11.711Z,16.17
2023-05-14T07:24:41.700Z,18.37
2023-05-14T07:27:12.575Z,17.73
2023-05-14T07:29:40.593Z,16.33
2023-05-14T07:32:11.431Z,18.47
2023-05-14T07:34:41.948Z,16.17
2023-05-14T07:37:09.043Z,15.53
2023-05-14T07:39:36.996Z,19.27
2023-05-14T07:42:06.089Z,19.40
2023-05-14T07:44:33.031Z,16.90
2023-05-14T07:47:00.032Z,18.37
2023-05-14T07:49:26.961Z,16.83
2023-05-14T07:51:55.907Z,15.57
2023-05-14T07:54:23.923Z,18.93
2023-05-14T07:56:50.947Z,16.50
2023-05-14T07:59:21.566Z,14.87
2023-05-14T08:01:48.605Z,17.17
2023-05-14T08:04:18.846Z,21.60
2023-05-14T08:06:46.928Z,15.37
2023-05-14T08:09:14.012Z,16.53
2023-05-14T08:11:42.137Z,15.70
2023-05-14T08:14:11.326Z,15.93
2023-05-14T08:16:40.523Z,15.27
2023-05-14T08:19:10.812Z,17.00
2023-05-14T08:21:39.843Z,13.07
2023-05-14T08:24:07.114Z,17.10
2023-05-14T08:26:38.861Z,13.63
2023-05-14T08:29:09.360Z,16.53
2023-05-14T08:31:37.665Z,14.33
2023-05-14T08:34:04.616Z,13.83
2023-05-14T08:36:31.692Z,13.07
2023-05-14T08:39:01.784Z,18.57
2023-05-14T08:41:29.070Z,16.53
2023-05-14T08:44:13.624Z,14.90
2023-05-14T08:46:47.151Z,15.07
2023-05-14T08:49:32.453Z,13.63
2023-05-14T08:52:02.055Z,12.40
2023-05-14T08:54:32.510Z,13.17
2023-05-14T08:56:59.677Z,14.13
2023-05-14T08:59:27.702Z,14.50
2023-05-14T09:02:01.890Z,15.23
2023-05-14T09:04:30.146Z,13.53
2023-05-14T09:09:29.914Z,12.60
2023-05-14T09:12:01.423Z,12.93
2023-05-14T09:14:28.526Z,11.23
2023-05-14T09:16:55.724Z,13.60
2023-05-14T09:19:23.587Z,13.17
2023-05-14T09:21:56.465Z,10.77
2023-05-14T09:24:29.119Z,11.53
2023-05-14T09:27:02.539Z,10.20
2023-05-14T09:29:32.933Z,11.93
2023-05-14T09:32:04.949Z,11.67
2023-05-14T09:34:38.101Z,9.63
2023-05-14T09:37:07.213Z,9.07
2023-05-14T09:39:37.856Z,9.60
2023-05-14T09:42:05.991Z,9.33
2023-05-14T09:44:36.492Z,12.10
2023-05-14T09:47:06.848Z,8.57
2023-05-14T09:49:35.849Z,12.73
2023-05-14T09:52:06.524Z,9.70
2023-05-14T09:54:38.171Z,9.03
2023-05-14T09:57:07.120Z,14.00
2023-05-14T09:59:35.111Z,8.90
2023-05-14T10:02:03.972Z,9.17
2023-05-14T10:04:34.060Z,9.93
2023-05-14T10:07:02.471Z,11.67
2023-05-14T10:09:31.470Z,9.23
2023-05-14T10:12:01.928Z,8.27
2023-05-14T10:14:43.153Z,9.60
2023-05-14T10:17:18.713Z,8.30
2023-05-14T10:19:54.650Z,9.17
2023-05-14T10:22:27.871Z,9.07
2023-05-14T10:24:56.312Z,9.87
2023-05-14T10:27:27.426Z,11.13
2023-05-14T10:29:56.632Z,8.13
2023-05-14T10:32:25.992Z,7.90
2023-05-14T10:34:54.517Z,11.03
2023-05-14T10:37:23.902Z,8.07
2023-05-14T10:40:08.434Z,7.17
2023-05-14T10:42:43.639Z,8.43
2023-05-14T10:45:13.546Z,9.93
2023-05-14T10:47:43.749Z,8.23
2023-05-14T10:50:14.258Z,8.60
2023-05-14T10:52:43.506Z,10.17
2023-05-14T10:55:14.188Z,9.23
2023-05-14T10:57:46.318Z,8.60
2023-05-14T11:00:17.162Z,8.50
2023-05-14T11:02:46.998Z,9.27
2023-05-14T11:05:17.956Z,7.90
2023-05-14T11:07:47.344Z,12.53
2023-05-14T11:10:21.049Z,8.57
2023-05-14T11:12:53.194Z,8.87
2023-05-14T11:15:23.204Z,9.30
2023-05-14T11:17:52.483Z,8.83
2023-05-14T11:20:21.299Z,9.53
2023-05-14T11:22:51.979Z,7.73
2023-05-14T11:25:26.071Z,10.13
2023-05-14T11:27:56.176Z,7.13
2023-05-14T11:30:25.523Z,11.03
2023-05-14T11:32:54.385Z,8.50
2023-05-14T11:35:21.469Z,10.40
2023-05-14T11:37:53.166Z,11.67
2023-05-14T11:40:22.736Z,8.83
2023-05-14T11:42:53.674Z,9.73
2023-05-14T11:45:30.133Z,8.07
2023-05-14T11:47:58.203Z,7.47
2023-05-14T11:50:28.412Z,10.13
2023-05-14T11:52:58.545Z,11.00
2023-05-14T11:55:29.284Z,9.40
2023-05-14T11:57:59.577Z,9.10
2023-05-14T12:00:27.290Z,7.80
2023-05-14T12:02:55.593Z,6.73
2023-05-14T12:05:25.935Z,6.73
2023-05-14T12:07:59.411Z,6.63
2023-05-14T12:10:28.427Z,6.47
2023-05-14T12:13:06.969Z,7.13
2023-05-14T12:15:34.054Z,7.67
2023-05-14T12:18:22.927Z,7.73
2023-05-14T12:20:52.342Z,7.50
2023-05-14T12:23:29.926Z,8.53
2023-05-14T12:26:06.661Z,7.40
2023-05-14T12:28:38.406Z,8.37
2023-05-14T12:31:07.746Z,7.53
2023-05-14T12:33:34.879Z,7.97
2023-05-14T12:36:13.970Z,10.40
2023-05-14T12:38:48.595Z,7.10
2023-05-14T12:41:18.946Z,7.50
2023-05-14T12:43:49.788Z,7.37
2023-05-14T12:46:18.217Z,6.90
2023-05-14T12:48:49.264Z,7.77
2023-05-14T12:51:17.748Z,8.30
2023-05-14T12:53:49.958Z,6.67
2023-05-14T12:56:17.173Z,7.03
2023-05-14T12:58:46.805Z,10.43
2023-05-14T13:01:13.826Z,7.30
2023-05-14T13:03:41.634Z,6.83
2023-05-14T13:06:11.884Z,6.60
2023-05-14T13:08:42.602Z,6.67
2023-05-14T13:11:10.834Z,7.23
2023-05-14T13:13:37.906Z,6.97
2023-05-14T13:16:08.172Z,10.50
2023-05-14T13:18:37.232Z,6.90
2023-05-14T13:21:06.536Z,8.13
2023-05-14T13:23:35.822Z,7.40
2023-05-14T13:26:02.909Z,6.93
2023-05-14T13:28:33.057Z,7.53
2023-05-14T13:31:12.001Z,7.47
2023-05-14T13:33:42.121Z,9.47
2023-05-14T13:36:10.703Z,7.57
2023-05-14T13:38:38.132Z,7.77
2023-05-14T13:41:09.001Z,9.97
2023-05-14T13:43:36.591Z,10.57
2023-05-14T13:46:07.052Z,8.63
2023-05-14T13:48:37.193Z,9.73
2023-05-14T13:51:05.657Z,9.53
2023-05-14T13:53:33.125Z,14.80
2023-05-14T13:56:01.800Z,8.60
2023-05-14T13:58:30.450Z,8.97
2023-05-14T14:00:59.679Z,8.00
2023-05-14T14:03:26.656Z,8.93
2023-05-14T14:05:56.859Z,11.70
2023-05-14T14:08:27.074Z,8.70
2023-05-14T14:10:57.232Z,7.50
2023-05-14T14:13:26.236Z,9.40
2023-05-14T14:15:53.333Z,8.33
2023-05-14T14:18:22.353Z,12.63
2023-05-14T14:20:49.426Z,11.87
2023-05-14T14:23:18.483Z,11.23
2023-05-14T14:25:45.552Z,12.33
2023-05-14T14:28:15.751Z,13.90
2023-05-14T14:30:43.978Z,11.87
2023-05-14T14:33:11.736Z,11.50
2023-05-14T14:35:40.162Z,11.23
2023-05-14T14:38:10.389Z,11.70
2023-05-14T14:40:38.463Z,11.93
2023-05-14T14:43:08.482Z,9.90
2023-05-14T14:45:38.460Z,9.63
2023-05-14T14:48:28.913Z,10.27
2023-05-14T14:50:59.079Z,13.80
2023-05-14T14:53:29.350Z,9.13
2023-05-14T14:56:00.612Z,8.67
2023-05-14T14:58:31.348Z,7.17
2023-05-14T15:00:58.726Z,7.33
2023-05-14T15:03:26.353Z,7.90
2023-05-14T15:05:54.561Z,6.23
2023-05-14T15:08:26.370Z,6.70
2023-05-14T15:10:54.156Z,7.17
2023-05-14T15:13:22.376Z,7.53
2023-05-14T15:15:51.678Z,7.33
2023-05-14T15:18:18.897Z,7.37
2023-05-14T15:20:49.400Z,6.93
2023-05-14T15:23:17.392Z,6.40
2023-05-14T15:25:47.490Z,7.30
2023-05-14T15:28:16.477Z,9.73
2023-05-14T15:30:43.578Z,7.07
2023-05-14T15:33:11.008Z,7.07
2023-05-14T15:35:41.193Z,7.97
2023-05-14T15:38:10.186Z,8.30
2023-05-14T15:40:40.861Z,7.47
2023-05-14T15:43:11.003Z,7.23
2023-05-14T15:45:41.011Z,7.30
2023-05-14T15:48:08.084Z,7.33
2023-05-14T15:50:35.128Z,7.37
2023-05-14T15:53:05.290Z,8.00
2023-05-14T15:55:35.674Z,8.53
2023-05-14T15:58:06.376Z,7.13
2023-05-14T16:00:33.450Z,7.93
2023-05-14T16:03:03.736Z,8.80
2023-05-14T16:05:33.820Z,8.30
2023-05-14T16:08:03.744Z,7.70
2023-05-14T16:10:32.720Z,9.93
2023-05-14T16:13:02.760Z,8.10
2023-05-14T16:15:29.783Z,7.37
2023-05-14T16:17:57.101Z,7.70
2023-05-14T16:20:26.237Z,7.53
2023-05-14T16:22:54.318Z,8.60
2023-05-14T16:25:21.306Z,7.47
2023-05-14T16:27:48.344Z,6.50
2023-05-14T16:30:15.483Z,10.70
2023-05-14T16:32:42.764Z,8.80
2023-05-14T16:35:10.004Z,7.07
2023-05-14T16:37:37.068Z,6.67
2023-05-14T16:40:06.714Z,8.10
2023-05-14T16:42:33.774Z,6.80
2023-05-14T16:45:00.914Z,7.60
2023-05-14T16:47:33.937Z,7.23
2023-05-14T16:50:03.274Z,6.47
2023-05-14T16:52:33.456Z,11.10
2023-05-14T16:55:00.606Z,8.53
2023-05-14T16:57:30.773Z,11.47
2023-05-14T17:00:01.019Z,7.27
2023-05-14T17:02:34.448Z,25.57
2023-05-14T17:05:02.598Z,14.17
2023-05-14T17:07:32.765Z,14.50
2023-05-14T17:10:02.862Z,8.90
2023-05-14T17:12:29.802Z,8.07
2023-05-14T17:14:56.769Z,6.70
2023-05-14T17:17:30.182Z,7.07
2023-05-14T17:19:57.219Z,8.10
2023-05-14T17:22:24.211Z,9.83
2023-05-14T17:24:51.218Z,11.13
2023-05-14T17:27:18.307Z,25.07
2023-05-14T17:29:45.368Z,16.53
2023-05-14T17:32:12.386Z,13.57
2023-05-14T17:34:40.509Z,7.53
2023-05-14T17:37:07.678Z,7.67
2023-05-14T17:39:34.640Z,6.20
2023-05-14T17:42:03.704Z,6.73
2023-05-14T17:44:31.734Z,9.53
2023-05-14T17:47:00.632Z,8.43
2023-05-14T17:49:30.964Z,9.50
2023-05-14T17:51:59.065Z,7.23
2023-05-14T17:54:26.130Z,6.40
2023-05-14T17:56:54.007Z,5.90
2023-05-14T17:59:24.124Z,6.53
2023-05-14T18:01:51.454Z,6.90
2023-05-14T18:04:18.535Z,6.50
2023-05-14T18:06:46.586Z,7.10
2023-05-14T18:09:16.728Z,8.20
2023-05-14T18:11:45.732Z,9.67
2023-05-14T18:14:17.632Z,9.17
2023-05-14T18:16:44.756Z,7.37
2023-05-14T18:19:11.905Z,7.80
2023-05-14T18:21:39.992Z,8.53
2023-05-14T18:24:13.260Z,8.93
2023-05-14T18:26:42.481Z,8.60
2023-05-14T18:29:12.690Z,8.43
2023-05-14T18:31:39.730Z,8.03
2023-05-14T18:34:06.718Z,8.63
2023-05-14T18:36:34.222Z,8.13
2023-05-14T18:39:01.307Z,9.30
2023-05-14T18:41:28.343Z,8.87
2023-05-14T18:43:58.085Z,8.47
2023-05-14T18:46:26.409Z,8.90
2023-05-14T18:48:53.460Z,8.53
2023-05-14T18:51:23.515Z,8.70
2023-05-14T18:53:53.613Z,28.30
2023-05-14T18:56:24.671Z,28.27
2023-05-14T18:58:54.804Z,11.57
2023-05-14T19:01:25.735Z,10.30
2023-05-14T19:03:58.879Z,9.57
2023-05-14T19:06:26.066Z,8.10
2023-05-14T19:08:56.595Z,8.77
2023-05-14T19:11:26.157Z,8.87
2023-05-14T19:13:54.197Z,8.43
2023-05-14T19:16:21.461Z,8.60
2023-05-14T19:18:49.849Z,8.37
2023-05-14T19:21:20.024Z,9.30
2023-05-14T19:23:48.175Z,10.27
2023-05-14T19:26:16.008Z,8.87
2023-05-14T19:28:46.192Z,8.63
2023-05-14T19:31:14.344Z,9.23
2023-05-14T19:33:42.529Z,9.87
2023-05-14T19:36:09.740Z,9.83
2023-05-14T19:38:40.180Z,9.57
2023-05-14T19:41:09.255Z,9.93
2023-05-14T19:43:37.411Z,9.10
2023-05-14T19:46:06.421Z,8.37
2023-05-14T19:48:35.753Z,10.73
2023-05-14T19:51:03.739Z,9.73
2023-05-14T19:53:30.855Z,12.87
2023-05-14T19:55:58.307Z,11.27
2023-05-14T19:58:29.092Z,12.77
2023-05-14T20:00:58.583Z,10.40
2023-05-14T20:03:27.040Z,10.83
2023-05-14T20:06:00.198Z,10.93
2023-05-14T20:08:29.341Z,10.10
2023-05-14T20:10:59.374Z,10.63
2023-05-14T20:13:31.834Z,9.27
2023-05-14T20:16:05.284Z,9.77
2023-05-14T20:18:35.463Z,8.60
2023-05-14T20:21:04.597Z,9.40
2023-05-14T20:23:32.396Z,12.93
2023-05-14T20:26:02.518Z,10.97
2023-05-14T20:28:31.534Z,10.03
2023-05-14T20:31:04.010Z,9.97
2023-05-14T20:33:34.232Z,13.77
2023-05-14T20:36:04.498Z,11.63
2023-05-14T20:38:35.185Z,11.97
2023-05-14T20:41:13.384Z,10.80
2023-05-14T20:43:43.535Z,12.77
2023-05-14T20:46:12.855Z,9.93
2023-05-14T20:48:43.047Z,11.23
2023-05-14T20:51:16.013Z,12.27
2023-05-14T20:53:46.145Z,13.00
2023-05-14T20:56:13.331Z,12.80
2023-05-14T20:58:43.375Z,12.87
2023-05-14T21:01:11.450Z,11.60
2023-05-14T21:03:39.615Z,11.13
2023-05-14T21:06:07.730Z,11.13
2023-05-14T21:08:39.677Z,10.63
2023-05-14T21:11:08.672Z,10.57
2023-05-14T21:13:35.731Z,9.87
2023-05-14T21:16:02.961Z,11.20
2023-05-14T21:18:32.872Z,13.30
2023-05-14T21:21:05.377Z,11.37
2023-05-14T21:23:35.782Z,11.37
2023-05-14T21:26:03.886Z,10.40
2023-05-14T21:28:31.948Z,12.70
2023-05-14T21:31:01.913Z,13.50
2023-05-14T21:33:32.046Z,12.37
2023-05-14T21:36:01.141Z,17.40
2023-05-14T21:38:33.416Z,17.17
2023-05-14T21:41:00.573Z,16.50
2023-05-14T21:43:29.610Z,15.60
2023-05-14T21:45:57.788Z,18.03
2023-05-14T21:48:28.360Z,21.07
2023-05-14T21:50:57.558Z,24.83
2023-05-14T21:53:30.480Z,26.40
2023-05-14T21:56:00.789Z,18.37
2023-05-14T21:58:28.793Z,18.20
2023-05-14T22:00:58.884Z,16.90
2023-05-14T22:03:26.037Z,16.77
2023-05-14T22:05:54.135Z,17.13
2023-05-14T22:08:21.237Z,14.87
2023-05-14T22:10:51.448Z,14.77
2023-05-14T22:13:21.550Z,14.90
2023-05-14T22:16:01.488Z,14.40
2023-05-14T22:18:41.170Z,12.73
2023-05-14T22:21:08.287Z,16.40
2023-05-14T22:23:37.917Z,14.50
2023-05-14T22:26:08.054Z,13.70
2023-05-14T22:28:42.880Z,12.80
2023-05-14T22:31:13.128Z,15.57
2023-05-14T22:33:42.101Z,18.67
2023-05-14T22:36:10.840Z,20.67
2023-05-14T22:38:41.356Z,18.00
2023-05-14T22:41:08.424Z,20.20
2023-05-14T22:43:38.484Z,18.83
2023-05-14T22:46:08.659Z,21.07
2023-05-14T22:48:38.729Z,18.43
2023-05-14T22:51:07.411Z,17.73
2023-05-14T22:53:35.365Z,17.97
2023-05-14T22:56:05.903Z,14.87
2023-05-14T22:58:32.988Z,15.63
2023-05-14T23:01:00.013Z,15.80
2023-05-14T23:03:27.142Z,16.37
2023-05-14T23:05:56.250Z,18.50
2023-05-14T23:08:24.220Z,20.23
2023-05-14T23:10:54.918Z,20.83
2023-05-14T23:13:22.999Z,21.03
2023-05-14T23:15:51.081Z,17.93
2023-05-14T23:18:21.288Z,20.67
2023-05-14T23:20:51.507Z,18.70
2023-05-14T23:23:21.562Z,20.97
2023-05-14T23:25:50.314Z,19.50
2023-05-14T23:28:20.334Z,20.47
2023-05-14T23:30:50.366Z,20.43
2023-05-14T23:33:17.281Z,21.07
2023-05-14T23:35:44.683Z,20.67
2023-05-14T23:38:11.869Z,19.57
2023-05-14T23:40:38.909Z,20.87
2023-05-14T23:43:08.848Z,19.83
2023-05-14T23:45:39.079Z,19.73
2023-05-14T23:48:06.754Z,19.30
2023-05-14T23:50:33.793Z,22.50
2023-05-14T23:53:04.022Z,24.03
2023-05-14T23:55:34.350Z,23.10
2023-05-14T23:58:03.550Z,26.13
